PRIVATE WETTERSTATION BILLIGHEIM-ALLFELD                       ZURCK
Wetterdaten: Montag, 07.04.2014
Datum Zeit Temp. A. Temp. A. min Temp. A. max Feuchte A. Luftdruck Regen Wind Richtung Richtung Sonnenschein ET Solar Taupunkt Windchill Windben Empfang
07.04.2014 00:00 12,6 C 12,6 C 12,9 C 76 % 1018,9 hPa 0,0 l/m 0,0 km/h (0 Bft) S-SO 157 0 min 0,025 mm 0 W/m 8,5 C 12,6 C 1,6 km/h (1 Bft) 100 %
07.04.2014 00:10 12,1 C 12,1 C 12,6 C 78 % 1018,9 hPa 0,0 l/m 0,0 km/h (0 Bft) N 0 0 min 0,000 mm 0 W/m 8,4 C 12,1 C 0,0 km/h (0 Bft) 100 %
07.04.2014 00:20 11,9 C 11,9 C 12,1 C 78 % 1018,9 hPa 0,0 l/m 0,0 km/h (0 Bft) N 0 0 min 0,000 mm 0 W/m 8,2 C 11,9 C 0,0 km/h (0 Bft) 100 %
07.04.2014 00:30 11,9 C 11,8 C 11,9 C 79 % 1019,1 hPa 0,0 l/m 0,0 km/h (0 Bft) N 0 0 min 0,000 mm 0 W/m 8,4 C 11,9 C 0,0 km/h (0 Bft) 100 %
07.04.2014 00:40 11,8 C 11,8 C 11,9 C 79 % 1019,0 hPa 0,0 l/m 0,0 km/h (0 Bft) N 0 0 min 0,000 mm 0 W/m 8,3 C 11,8 C 0,0 km/h (0 Bft) 100 %
07.04.2014 00:50 11,8 C 11,8 C 11,8 C 79 % 1019,0 hPa 0,0 l/m 0,0 km/h (0 Bft) N 0 0 min 0,000 mm 0 W/m 8,3 C 11,8 C 0,0 km/h (0 Bft) 100 %
07.04.2014 01:00 11,8 C 11,8 C 11,8 C 80 % 1019,0 hPa 0,0 l/m 0,0 km/h (0 Bft) S-SO 157 0 min 0,025 mm 0 W/m 8,5 C 11,8 C 1,6 km/h (1 Bft) 100 %
07.04.2014 01:10 11,7 C 11,7 C 11,8 C 79 % 1018,9 hPa 0,0 l/m 0,0 km/h (0 Bft) N 0 0 min 0,000 mm 0 W/m 8,2 C 11,7 C 0,0 km/h (0 Bft) 100 %
07.04.2014 01:20 11,7 C 11,6 C 11,7 C 81 % 1018,9 hPa 0,0 l/m 0,0 km/h (0 Bft) S-SO 157 0 min 0,000 mm 0 W/m 8,5 C 11,7 C 1,6 km/h (1 Bft) 100 %
07.04.2014 01:30 11,5 C 11,5 C 11,7 C 82 % 1018,9 hPa 0,0 l/m 0,0 km/h (0 Bft) S-SO 157 0 min 0,000 mm 0 W/m 8,5 C 11,5 C 1,6 km/h (1 Bft) 100 %
07.04.2014 01:40 11,4 C 11,4 C 11,5 C 81 % 1018,9 hPa 0,0 l/m 0,0 km/h (0 Bft) S-SO 157 0 min 0,000 mm 0 W/m 8,3 C 11,4 C 3,2 km/h (1 Bft) 100 %
07.04.2014 01:50 11,3 C 11,3 C 11,4 C 79 % 1018,9 hPa 0,0 l/m 0,0 km/h (0 Bft) S-SO 157 0 min 0,000 mm 0 W/m 7,8 C 11,3 C 6,4 km/h (2 Bft) 100 %
07.04.2014 02:00 11,5 C 11,3 C 11,5 C 76 % 1018,9 hPa 0,0 l/m 0,0 km/h (0 Bft) S-SO 157 0 min 0,025 mm 0 W/m 7,4 C 11,5 C 1,6 km/h (1 Bft) 100 %
07.04.2014 02:10 11,7 C 11,5 C 11,7 C 75 % 1019,0 hPa 0,0 l/m 0,0 km/h (0 Bft) S-SO 157 0 min 0,000 mm 0 W/m 7,4 C 11,7 C 3,2 km/h (1 Bft) 100 %
07.04.2014 02:20 11,4 C 11,4 C 11,7 C 76 % 1019,0 hPa 0,0 l/m 0,0 km/h (0 Bft) N 0 0 min 0,000 mm 0 W/m 7,3 C 11,4 C 0,0 km/h (0 Bft) 99 %
07.04.2014 02:30 11,1 C 11,1 C 11,4 C 76 % 1018,9 hPa 0,0 l/m 0,0 km/h (0 Bft) S-SO 157 0 min 0,000 mm 0 W/m 7,0 C 11,1 C 3,2 km/h (1 Bft) 100 %
07.04.2014 02:40 11,3 C 11,1 C 11,3 C 75 % 1018,9 hPa 0,0 l/m 0,0 km/h (0 Bft) S-SO 157 0 min 0,000 mm 0 W/m 7,0 C 11,3 C 1,6 km/h (1 Bft) 100 %
07.04.2014 02:50 11,4 C 11,3 C 11,4 C 74 % 1018,9 hPa 0,0 l/m 0,0 km/h (0 Bft) S-SO 157 0 min 0,000 mm 0 W/m 6,9 C 11,4 C 1,6 km/h (1 Bft) 100 %
07.04.2014 03:00 11,3 C 11,3 C 11,4 C 74 % 1018,7 hPa 0,0 l/m 0,0 km/h (0 Bft) S-SO 157 0 min 0,025 mm 0 W/m 6,8 C 11,3 C 1,6 km/h (1 Bft) 98 %
07.04.2014 03:10 11,2 C 11,2 C 11,3 C 75 % 1018,8 hPa 0,0 l/m 0,0 km/h (0 Bft) S-SO 157 0 min 0,000 mm 0 W/m 6,9 C 11,2 C 1,6 km/h (1 Bft) 100 %
07.04.2014 03:20 10,8 C 10,8 C 11,2 C 76 % 1018,6 hPa 0,0 l/m 0,0 km/h (0 Bft) S-SO 157 0 min 0,000 mm 0 W/m 6,7 C 10,8 C 1,6 km/h (1 Bft) 100 %
07.04.2014 03:30 10,7 C 10,7 C 10,7 C 76 % 1018,6 hPa 0,0 l/m 0,0 km/h (0 Bft) S-SO 157 0 min 0,000 mm 0 W/m 6,6 C 10,7 C 1,6 km/h (1 Bft) 100 %
07.04.2014 03:40 10,9 C 10,7 C 10,9 C 75 % 1018,6 hPa 0,0 l/m 0,0 km/h (0 Bft) S-SO 157 0 min 0,000 mm 0 W/m 6,6 C 10,9 C 1,6 km/h (1 Bft) 100 %
07.04.2014 03:50 10,9 C 10,9 C 11,0 C 75 % 1018,6 hPa 0,0 l/m 0,0 km/h (0 Bft) S-SO 157 0 min 0,000 mm 0 W/m 6,6 C 10,9 C 4,8 km/h (1 Bft) 100 %
07.04.2014 04:00 10,8 C 10,8 C 10,9 C 76 % 1018,6 hPa 0,0 l/m 0,0 km/h (0 Bft) SO 135 0 min 0,025 mm 0 W/m 6,7 C 10,8 C 1,6 km/h (1 Bft) 100 %
07.04.2014 04:10 10,3 C 10,3 C 10,8 C 78 % 1018,6 hPa 0,0 l/m 0,0 km/h (0 Bft) SO 135 0 min 0,000 mm 0 W/m 6,6 C 10,3 C 1,6 km/h (1 Bft) 100 %
07.04.2014 04:20 10,0 C 10,0 C 10,3 C 79 % 1018,5 hPa 0,0 l/m 0,0 km/h (0 Bft) SO 135 0 min 0,000 mm 0 W/m 6,5 C 10,0 C 1,6 km/h (1 Bft) 100 %
07.04.2014 04:30 9,6 C 9,6 C 10,0 C 80 % 1018,5 hPa 0,0 l/m 0,0 km/h (0 Bft) SO 135 0 min 0,000 mm 0 W/m 6,3 C 9,6 C 1,6 km/h (1 Bft) 100 %
07.04.2014 04:40 9,2 C 9,2 C 9,6 C 81 % 1018,7 hPa 0,0 l/m 0,0 km/h (0 Bft) SO 135 0 min 0,000 mm 0 W/m 6,1 C 9,2 C 1,6 km/h (1 Bft) 100 %
07.04.2014 04:50 8,8 C 8,8 C 9,2 C 82 % 1018,6 hPa 0,0 l/m 0,0 km/h (0 Bft) SO 135 0 min 0,000 mm 0 W/m 5,9 C 8,8 C 1,6 km/h (1 Bft) 100 %
07.04.2014 05:00 8,6 C 8,6 C 8,8 C 83 % 1018,6 hPa 0,0 l/m 0,0 km/h (0 Bft) N 0 0 min 0,025 mm 0 W/m 5,9 C 8,6 C 0,0 km/h (0 Bft) 100 %
07.04.2014 05:10 8,4 C 8,4 C 8,6 C 84 % 1018,6 hPa 0,0 l/m 0,0 km/h (0 Bft) N 0 0 min 0,000 mm 0 W/m 5,9 C 8,4 C 0,0 km/h (0 Bft) 100 %
07.04.2014 05:20 8,2 C 8,2 C 8,4 C 84 % 1018,5 hPa 0,0 l/m 0,0 km/h (0 Bft) N 0 0 min 0,000 mm 0 W/m 5,7 C 8,2 C 0,0 km/h (0 Bft) 100 %
07.04.2014 05:30 8,0 C 8,0 C 8,2 C 85 % 1018,5 hPa 0,0 l/m 0,0 km/h (0 Bft) N 0 0 min 0,000 mm 0 W/m 5,6 C 8,0 C 0,0 km/h (0 Bft) 100 %
07.04.2014 05:40 7,8 C 7,8 C 8,0 C 86 % 1018,5 hPa 0,0 l/m 0,0 km/h (0 Bft) N 0 0 min 0,000 mm 0 W/m 5,6 C 7,8 C 0,0 km/h (0 Bft) 100 %
07.04.2014 05:50 7,6 C 7,6 C 7,8 C 86 % 1018,5 hPa 0,0 l/m 0,0 km/h (0 Bft) SO 135 0 min 0,000 mm 0 W/m 5,4 C 7,6 C 1,6 km/h (1 Bft) 100 %
07.04.2014 06:00 7,4 C 7,4 C 7,6 C 86 % 1018,5 hPa 0,0 l/m 0,0 km/h (0 Bft) N 0 0 min 0,000 mm 0 W/m 5,2 C 7,4 C 0,0 km/h (0 Bft) 100 %
07.04.2014 06:10 7,3 C 7,3 C 7,4 C 87 % 1018,5 hPa 0,0 l/m 0,0 km/h (0 Bft) SO 135 0 min 0,000 mm 0 W/m 5,3 C 7,3 C 1,6 km/h (1 Bft) 100 %
07.04.2014 06:20 7,3 C 7,3 C 7,3 C 87 % 1018,5 hPa 0,0 l/m 0,0 km/h (0 Bft) N 0 0 min 0,000 mm 0 W/m 5,3 C 7,3 C 0,0 km/h (0 Bft) 100 %
07.04.2014 06:30 7,3 C 7,3 C 7,3 C 87 % 1018,6 hPa 0,0 l/m 0,0 km/h (0 Bft) N 0 0 min 0,000 mm 0 W/m 5,3 C 7,3 C 0,0 km/h (0 Bft) 100 %
07.04.2014 06:40 7,1 C 7,1 C 7,3 C 87 % 1018,6 hPa 0,0 l/m 0,0 km/h (0 Bft) N 0 0 min 0,000 mm 0 W/m 5,1 C 7,1 C 0,0 km/h (0 Bft) 100 %
07.04.2014 06:50 6,9 C 6,9 C 7,1 C 87 % 1018,7 hPa 0,0 l/m 0,0 km/h (0 Bft) SO 135 0 min 0,000 mm 0 W/m 4,9 C 6,9 C 1,6 km/h (1 Bft) 100 %
07.04.2014 07:00 6,8 C 6,8 C 6,9 C 87 % 1018,7 hPa 0,0 l/m 0,0 km/h (0 Bft) N 0 0 min 0,000 mm 7 W/m 4,8 C 6,8 C 0,0 km/h (0 Bft) 100 %
07.04.2014 07:10 6,8 C 6,8 C 6,8 C 87 % 1018,7 hPa 0,0 l/m 0,0 km/h (0 Bft) N 0 0 min 0,000 mm 12 W/m 4,8 C 6,8 C 0,0 km/h (0 Bft) 100 %
07.04.2014 07:20 6,8 C 6,8 C 6,8 C 87 % 1018,7 hPa 0,0 l/m 0,0 km/h (0 Bft) N 0 0 min 0,000 mm 18 W/m 4,8 C 6,8 C 0,0 km/h (0 Bft) 99 %
07.04.2014 07:30 6,8 C 6,8 C 6,8 C 87 % 1018,8 hPa 0,0 l/m 0,0 km/h (0 Bft) N 0 0 min 0,000 mm 26 W/m 4,8 C 6,8 C 0,0 km/h (0 Bft) 100 %
07.04.2014 07:40 6,8 C 6,8 C 6,8 C 87 % 1019,0 hPa 0,0 l/m 0,0 km/h (0 Bft) SO 135 0 min 0,000 mm 37 W/m 4,8 C 6,8 C 1,6 km/h (1 Bft) 100 %
07.04.2014 07:50 6,8 C 6,8 C 6,8 C 87 % 1018,9 hPa 0,0 l/m 0,0 km/h (0 Bft) SO 135 0 min 0,000 mm 51 W/m 4,8 C 6,8 C 3,2 km/h (1 Bft) 100 %
07.04.2014 08:00 6,9 C 6,8 C 7,0 C 87 % 1018,9 hPa 0,0 l/m 0,0 km/h (0 Bft) O 90 0 min 0,025 mm 62 W/m 4,9 C 6,9 C 1,6 km/h (1 Bft) 100 %
07.04.2014 08:10 7,2 C 7,0 C 7,2 C 87 % 1019,0 hPa 0,0 l/m 0,0 km/h (0 Bft) O 90 0 min 0,000 mm 70 W/m 5,2 C 7,2 C 1,6 km/h (1 Bft) 100 %
07.04.2014 08:20 7,6 C 7,2 C 7,6 C 87 % 1018,9 hPa 0,0 l/m 0,0 km/h (0 Bft) O 90 0 min 0,000 mm 105 W/m 5,6 C 7,6 C 1,6 km/h (1 Bft) 100 %
07.04.2014 08:30 8,1 C 7,6 C 8,1 C 87 % 1018,9 hPa 0,0 l/m 0,0 km/h (0 Bft) O 90 0 min 0,000 mm 148 W/m 6,1 C 8,1 C 1,6 km/h (1 Bft) 100 %
07.04.2014 08:40 8,7 C 8,1 C 8,7 C 87 % 1018,8 hPa 0,0 l/m 0,0 km/h (0 Bft) N 0 0 min 0,000 mm 142 W/m 6,7 C 8,7 C 0,0 km/h (0 Bft) 100 %
07.04.2014 08:50 9,2 C 8,7 C 9,2 C 87 % 1018,9 hPa 0,0 l/m 0,0 km/h (0 Bft) O-NO 67 10 min 0,000 mm 195 W/m 7,2 C 9,2 C 1,6 km/h (1 Bft) 91 %
07.04.2014 09:00 9,8 C 9,2 C 9,8 C 86 % 1018,8 hPa 0,0 l/m 0,0 km/h (0 Bft) O-NO 67 10 min 0,051 mm 229 W/m 7,6 C 9,8 C 1,6 km/h (1 Bft) 100 %
07.04.2014 09:10 10,6 C 9,8 C 10,6 C 84 % 1018,9 hPa 0,0 l/m 0,0 km/h (0 Bft) N 0 10 min 0,000 mm 302 W/m 8,0 C 10,6 C 0,0 km/h (0 Bft) 100 %
07.04.2014 09:20 11,2 C 10,6 C 11,2 C 80 % 1018,8 hPa 0,0 l/m 0,0 km/h (0 Bft) N 0 10 min 0,000 mm 299 W/m 7,9 C 11,2 C 0,0 km/h (0 Bft) 100 %
07.04.2014 09:30 12,1 C 11,2 C 12,1 C 78 % 1018,8 hPa 0,0 l/m 0,0 km/h (0 Bft) N 0 10 min 0,000 mm 385 W/m 8,4 C 12,1 C 0,0 km/h (0 Bft) 100 %
07.04.2014 09:40 13,3 C 12,2 C 13,3 C 76 % 1018,8 hPa 0,0 l/m 0,0 km/h (0 Bft) S-SW 202 10 min 0,000 mm 408 W/m 9,2 C 13,3 C 3,2 km/h (1 Bft) 100 %
07.04.2014 09:50 14,2 C 13,3 C 14,2 C 71 % 1018,8 hPa 0,0 l/m 0,0 km/h (0 Bft) S-SW 202 10 min 0,000 mm 417 W/m 9,0 C 14,2 C 3,2 km/h (1 Bft) 100 %
07.04.2014 10:00 14,7 C 14,2 C 14,7 C 71 % 1018,7 hPa 0,0 l/m 0,0 km/h (0 Bft) SW 225 10 min 0,178 mm 424 W/m 9,5 C 14,7 C 1,6 km/h (1 Bft) 100 %
07.04.2014 10:10 15,2 C 14,7 C 15,2 C 68 % 1018,7 hPa 0,0 l/m 0,0 km/h (0 Bft) SW 225 10 min 0,000 mm 490 W/m 9,3 C 15,2 C 1,6 km/h (1 Bft) 100 %
07.04.2014 10:20 15,8 C 15,2 C 15,8 C 67 % 1018,6 hPa 0,0 l/m 0,0 km/h (0 Bft) SW 225 10 min 0,000 mm 512 W/m 9,7 C 15,8 C 4,8 km/h (1 Bft) 100 %
07.04.2014 10:30 16,3 C 15,8 C 16,3 C 65 % 1018,5 hPa 0,0 l/m 0,0 km/h (0 Bft) W-SW 247 10 min 0,000 mm 545 W/m 9,7 C 16,3 C 4,8 km/h (1 Bft) 100 %
07.04.2014 10:40 16,3 C 16,3 C 16,4 C 66 % 1018,5 hPa 0,0 l/m 0,0 km/h (0 Bft) W-SW 247 10 min 0,000 mm 432 W/m 9,9 C 16,3 C 4,8 km/h (1 Bft) 100 %
07.04.2014 10:50 16,6 C 16,3 C 16,6 C 66 % 1018,5 hPa 0,0 l/m 1,6 km/h (1 Bft) SW 225 10 min 0,000 mm 580 W/m 10,2 C 16,6 C 6,4 km/h (2 Bft) 100 %
07.04.2014 11:00 16,8 C 16,6 C 16,8 C 65 % 1018,5 hPa 0,0 l/m 1,6 km/h (1 Bft) S-SW 202 10 min 0,254 mm 568 W/m 10,2 C 16,8 C 9,7 km/h (2 Bft) 100 %
07.04.2014 11:10 17,2 C 16,8 C 17,2 C 65 % 1018,5 hPa 0,0 l/m 3,2 km/h (1 Bft) S-SW 202 10 min 0,000 mm 594 W/m 10,6 C 17,2 C 11,3 km/h (2 Bft) 100 %
07.04.2014 11:20 17,6 C 17,2 C 17,6 C 63 % 1018,3 hPa 0,0 l/m 4,8 km/h (1 Bft) S-SW 202 10 min 0,000 mm 628 W/m 10,5 C 17,6 C 11,3 km/h (2 Bft) 100 %
07.04.2014 11:30 17,9 C 17,6 C 17,9 C 63 % 1018,3 hPa 0,0 l/m 4,8 km/h (1 Bft) S-SW 202 10 min 0,000 mm 645 W/m 10,8 C 17,9 C 14,5 km/h (3 Bft) 100 %
07.04.2014 11:40 18,3 C 17,9 C 18,3 C 61 % 1018,2 hPa 0,0 l/m 4,8 km/h (1 Bft) S-SW 202 10 min 0,000 mm 694 W/m 10,6 C 18,3 C 11,3 km/h (2 Bft) 100 %
07.04.2014 11:50 18,7 C 18,3 C 18,7 C 57 % 1018,0 hPa 0,0 l/m 3,2 km/h (1 Bft) SW 225 10 min 0,000 mm 657 W/m 10,0 C 18,7 C 11,3 km/h (2 Bft) 100 %
07.04.2014 12:00 18,7 C 18,6 C 18,7 C 58 % 1018,0 hPa 0,0 l/m 3,2 km/h (1 Bft) S-SW 202 10 min 0,356 mm 668 W/m 10,3 C 18,7 C 11,3 km/h (2 Bft) 100 %
07.04.2014 12:10 18,7 C 18,7 C 18,7 C 58 % 1017,7 hPa 0,0 l/m 3,2 km/h (1 Bft) SO 135 10 min 0,000 mm 724 W/m 10,3 C 18,7 C 9,7 km/h (2 Bft) 100 %
07.04.2014 12:20 18,3 C 18,3 C 18,7 C 60 % 1017,6 hPa 0,0 l/m 3,2 km/h (1 Bft) S-SW 202 10 min 0,000 mm 691 W/m 10,4 C 18,3 C 11,3 km/h (2 Bft) 100 %
07.04.2014 12:30 18,6 C 18,3 C 18,6 C 55 % 1017,5 hPa 0,0 l/m 4,8 km/h (1 Bft) S-SW 202 10 min 0,000 mm 714 W/m 9,4 C 18,6 C 11,3 km/h (2 Bft) 100 %
07.04.2014 12:40 18,9 C 18,6 C 18,9 C 54 % 1017,3 hPa 0,0 l/m 3,2 km/h (1 Bft) S-SO 157 10 min 0,000 mm 754 W/m 9,4 C 18,9 C 11,3 km/h (2 Bft) 100 %
07.04.2014 12:50 18,9 C 18,8 C 19,0 C 58 % 1017,2 hPa 0,0 l/m 4,8 km/h (1 Bft) O-SO 112 10 min 0,000 mm 686 W/m 10,5 C 18,9 C 16,1 km/h (3 Bft) 100 %
07.04.2014 13:00 19,1 C 18,9 C 19,1 C 56 % 1017,2 hPa 0,0 l/m 3,2 km/h (1 Bft) S 180 10 min 0,356 mm 671 W/m 10,1 C 19,1 C 9,7 km/h (2 Bft) 100 %
07.04.2014 13:10 19,5 C 19,1 C 19,5 C 55 % 1017,0 hPa 0,0 l/m 3,2 km/h (1 Bft) S-SW 202 10 min 0,000 mm 798 W/m 10,2 C 19,5 C 11,3 km/h (2 Bft) 100 %
07.04.2014 13:20 19,6 C 19,5 C 19,7 C 55 % 1016,7 hPa 0,0 l/m 6,4 km/h (2 Bft) S-SO 157 10 min 0,000 mm 756 W/m 10,3 C 19,6 C 16,1 km/h (3 Bft) 100 %
07.04.2014 13:30 19,7 C 19,5 C 19,7 C 54 % 1016,7 hPa 0,0 l/m 6,4 km/h (2 Bft) O-SO 112 10 min 0,000 mm 738 W/m 10,1 C 19,7 C 17,7 km/h (3 Bft) 100 %
07.04.2014 13:40 19,8 C 19,7 C 19,8 C 54 % 1016,5 hPa 0,0 l/m 3,2 km/h (1 Bft) S-SO 157 10 min 0,000 mm 715 W/m 10,2 C 19,8 C 14,5 km/h (3 Bft) 100 %
07.04.2014 13:50 20,3 C 19,8 C 20,3 C 50 % 1016,5 hPa 0,0 l/m 6,4 km/h (2 Bft) S-SW 202 10 min 0,000 mm 671 W/m 9,5 C 20,3 C 22,5 km/h (4 Bft) 100 %
07.04.2014 14:00 20,3 C 20,2 C 20,3 C 53 % 1016,4 hPa 0,0 l/m 3,2 km/h (1 Bft) W 270 10 min 0,381 mm 671 W/m 10,4 C 20,3 C 9,7 km/h (2 Bft) 100 %
07.04.2014 14:10 20,6 C 20,3 C 20,6 C 50 % 1016,2 hPa 0,0 l/m 6,4 km/h (2 Bft) SW 225 10 min 0,000 mm 661 W/m 9,8 C 20,6 C 22,5 km/h (4 Bft) 100 %
07.04.2014 14:20 21,0 C 20,6 C 21,0 C 48 % 1016,1 hPa 0,0 l/m 8,0 km/h (2 Bft) SW 225 10 min 0,000 mm 772 W/m 9,6 C 20,4 C 19,3 km/h (3 Bft) 100 %
07.04.2014 14:30 21,1 C 21,0 C 21,2 C 47 % 1015,9 hPa 0,0 l/m 4,8 km/h (1 Bft) SW 225 10 min 0,000 mm 712 W/m 9,3 C 21,1 C 14,5 km/h (3 Bft) 100 %
07.04.2014 14:40 21,2 C 21,1 C 21,3 C 50 % 1015,6 hPa 0,0 l/m 1,6 km/h (1 Bft) S-SW 202 10 min 0,000 mm 663 W/m 10,4 C 21,2 C 11,3 km/h (2 Bft) 100 %
07.04.2014 14:50 20,8 C 20,8 C 21,2 C 49 % 1015,4 hPa 0,0 l/m 3,2 km/h (1 Bft) W-SW 247 10 min 0,000 mm 642 W/m 9,7 C 20,8 C 14,5 km/h (3 Bft) 100 %
07.04.2014 15:00 21,2 C 20,8 C 21,2 C 47 % 1015,3 hPa 0,0 l/m 4,8 km/h (1 Bft) SW 225 10 min 0,381 mm 645 W/m 9,4 C 21,2 C 12,9 km/h (3 Bft) 100 %
07.04.2014 15:10 21,3 C 21,2 C 21,4 C 47 % 1015,0 hPa 0,0 l/m 4,8 km/h (1 Bft) S-SW 202 10 min 0,000 mm 594 W/m 9,5 C 21,3 C 14,5 km/h (3 Bft) 100 %
07.04.2014 15:20 21,2 C 21,1 C 21,3 C 49 % 1015,0 hPa 0,0 l/m 4,8 km/h (1 Bft) W-SW 247 10 min 0,000 mm 462 W/m 10,1 C 21,2 C 11,3 km/h (2 Bft) 100 %
07.04.2014 15:30 21,1 C 21,1 C 21,2 C 48 % 1014,9 hPa 0,0 l/m 4,8 km/h (1 Bft) SW 225 10 min 0,000 mm 346 W/m 9,7 C 21,1 C 14,5 km/h (3 Bft) 100 %
07.04.2014 15:40 21,1 C 21,1 C 21,2 C 48 % 1014,5 hPa 0,0 l/m 0,0 km/h (0 Bft) W 270 10 min 0,000 mm 388 W/m 9,7 C 21,1 C 6,4 km/h (2 Bft) 100 %
07.04.2014 15:50 21,1 C 21,0 C 21,1 C 47 % 1014,4 hPa 0,0 l/m 4,8 km/h (1 Bft) S-SO 157 10 min 0,000 mm 504 W/m 9,3 C 21,1 C 19,3 km/h (3 Bft) 100 %
07.04.2014 16:00 21,3 C 21,1 C 21,3 C 48 % 1014,3 hPa 0,0 l/m 3,2 km/h (1 Bft) S-SW 202 10 min 0,279 mm 547 W/m 9,8 C 21,3 C 14,5 km/h (3 Bft) 100 %
07.04.2014 16:10 21,7 C 21,3 C 21,7 C 47 % 1014,0 hPa 0,0 l/m 3,2 km/h (1 Bft) SW 225 10 min 0,000 mm 441 W/m 9,9 C 21,7 C 11,3 km/h (2 Bft) 100 %
07.04.2014 16:20 21,8 C 21,7 C 21,8 C 48 % 1013,9 hPa 0,0 l/m 3,2 km/h (1 Bft) SW 225 10 min 0,000 mm 429 W/m 10,3 C 21,8 C 11,3 km/h (2 Bft) 100 %
07.04.2014 16:30 21,3 C 21,3 C 21,7 C 46 % 1013,9 hPa 0,0 l/m 1,6 km/h (1 Bft) SO 135 10 min 0,000 mm 287 W/m 9,2 C 21,3 C 9,7 km/h (2 Bft) 100 %
07.04.2014 16:40 21,1 C 21,1 C 21,3 C 48 % 1013,6 hPa 0,0 l/m 4,8 km/h (1 Bft) S-SW 202 10 min 0,000 mm 230 W/m 9,7 C 21,1 C 19,3 km/h (3 Bft) 100 %
07.04.2014 16:50 20,7 C 20,7 C 21,1 C 48 % 1013,6 hPa 0,0 l/m 3,2 km/h (1 Bft) S-SW 202 10 min 0,000 mm 197 W/m 9,3 C 20,7 C 11,3 km/h (2 Bft) 100 %
07.04.2014 17:00 20,5 C 20,5 C 20,8 C 49 % 1013,5 hPa 0,0 l/m 4,8 km/h (1 Bft) S 180 10 min 0,203 mm 188 W/m 9,4 C 20,5 C 16,1 km/h (3 Bft) 100 %
07.04.2014 17:10 20,4 C 20,4 C 20,5 C 51 % 1013,3 hPa 0,0 l/m 1,6 km/h (1 Bft) S-SW 202 10 min 0,000 mm 178 W/m 9,9 C 20,4 C 9,7 km/h (2 Bft) 100 %
07.04.2014 17:20 20,5 C 20,4 C 20,5 C 52 % 1013,3 hPa 0,0 l/m 3,2 km/h (1 Bft) S-SW 202 10 min 0,000 mm 179 W/m 10,3 C 20,5 C 11,3 km/h (2 Bft) 100 %
07.04.2014 17:30 20,6 C 20,5 C 20,6 C 50 % 1013,1 hPa 0,0 l/m 1,6 km/h (1 Bft) S-SW 202 10 min 0,000 mm 181 W/m 9,8 C 20,6 C 9,7 km/h (2 Bft) 100 %
07.04.2014 17:40 20,7 C 20,6 C 20,7 C 52 % 1013,1 hPa 0,0 l/m 0,0 km/h (0 Bft) S-SO 157 10 min 0,000 mm 181 W/m 10,5 C 20,7 C 6,4 km/h (2 Bft) 100 %
07.04.2014 17:50 20,7 C 20,6 C 20,7 C 51 % 1012,9 hPa 0,0 l/m 1,6 km/h (1 Bft) S-SO 157 10 min 0,000 mm 174 W/m 10,2 C 20,7 C 9,7 km/h (2 Bft) 100 %
07.04.2014 18:00 20,7 C 20,7 C 20,7 C 51 % 1012,7 hPa 0,0 l/m 0,0 km/h (0 Bft) S-SO 157 10 min 0,127 mm 169 W/m 10,2 C 20,7 C 6,4 km/h (2 Bft) 100 %
07.04.2014 18:10 20,7 C 20,6 C 20,7 C 49 % 1012,5 hPa 0,0 l/m 0,0 km/h (0 Bft) O 90 0 min 0,000 mm 141 W/m 9,6 C 20,7 C 8,0 km/h (2 Bft) 100 %
07.04.2014 18:20 20,6 C 20,6 C 20,7 C 49 % 1012,4 hPa 0,0 l/m 0,0 km/h (0 Bft) SO 135 0 min 0,000 mm 127 W/m 9,5 C 20,6 C 6,4 km/h (2 Bft) 100 %
07.04.2014 18:30 20,5 C 20,5 C 20,6 C 51 % 1012,4 hPa 0,0 l/m 0,0 km/h (0 Bft) S-SO 157 0 min 0,000 mm 109 W/m 10,0 C 20,5 C 4,8 km/h (1 Bft) 100 %
07.04.2014 18:40 20,4 C 20,4 C 20,5 C 48 % 1012,3 hPa 0,0 l/m 0,0 km/h (0 Bft) S-SO 157 0 min 0,000 mm 77 W/m 9,0 C 20,4 C 1,6 km/h (1 Bft) 100 %
07.04.2014 18:50 20,2 C 20,2 C 20,4 C 48 % 1012,3 hPa 0,0 l/m 0,0 km/h (0 Bft) O-SO 112 0 min 0,000 mm 65 W/m 8,8 C 20,2 C 4,8 km/h (1 Bft) 100 %
07.04.2014 19:00 20,2 C 20,2 C 20,2 C 50 % 1012,3 hPa 0,0 l/m 0,0 km/h (0 Bft) O-SO 112 0 min 0,076 mm 86 W/m 9,4 C 20,2 C 4,8 km/h (1 Bft) 99 %
07.04.2014 19:10 20,2 C 20,1 C 20,2 C 49 % 1012,3 hPa 0,0 l/m 0,0 km/h (0 Bft) O-SO 120 0 min 0,000 mm 93 W/m 9,1 C 20,2 C 1,6 km/h (1 Bft) 100 %
07.04.2014 19:20 20,2 C 20,2 C 20,2 C 51 % 1012,0 hPa 0,0 l/m 0,8 km/h (0 Bft) SO 144 0 min 0,000 mm 65 W/m 9,7 C 20,2 C 6,4 km/h (2 Bft) 100 %
07.04.2014 19:30 20,1 C 20,1 C 20,2 C 51 % 1012,2 hPa 0,0 l/m 0,0 km/h (0 Bft) S-SO 155 0 min 0,000 mm 35 W/m 9,6 C 20,1 C 1,6 km/h (1 Bft) 100 %
07.04.2014 19:40 19,9 C 19,9 C 20,1 C 51 % 1012,2 hPa 0,0 l/m 0,0 km/h (0 Bft) S-SO 155 0 min 0,000 mm 18 W/m 9,5 C 19,9 C 1,6 km/h (1 Bft) 100 %
07.04.2014 19:50 19,6 C 19,6 C 19,9 C 51 % 1012,2 hPa 0,0 l/m 0,6 km/h (0 Bft) S 183 0 min 0,000 mm 7 W/m 9,2 C 19,6 C 6,4 km/h (2 Bft) 100 %
07.04.2014 20:00 19,2 C 19,2 C 19,6 C 52 % 1012,1 hPa 0,0 l/m 0,3 km/h (0 Bft) S 183 0 min 0,002 mm 0 W/m 9,1 C 19,2 C 4,8 km/h (1 Bft) 100 %
07.04.2014 20:10 18,8 C 18,8 C 19,2 C 52 % 1012,1 hPa 0,0 l/m 0,2 km/h (0 Bft) SO 128 0 min 0,000 mm 0 W/m 8,7 C 18,8 C 3,2 km/h (1 Bft) 100 %
07.04.2014 20:20 18,4 C 18,4 C 18,8 C 53 % 1012,0 hPa 0,0 l/m 0,0 km/h (0 Bft) SO 134 0 min 0,000 mm 0 W/m 8,6 C 18,4 C 1,6 km/h (1 Bft) 100 %
07.04.2014 20:30 18,1 C 18,1 C 18,4 C 57 % 1012,1 hPa 0,0 l/m 0,0 km/h (0 Bft) SO 134 0 min 0,000 mm 0 W/m 9,4 C 18,1 C 0,0 km/h (0 Bft) 100 %
07.04.2014 20:40 17,5 C 17,5 C 18,1 C 57 % 1012,1 hPa 0,0 l/m 0,2 km/h (0 Bft) SO 134 0 min 0,000 mm 0 W/m 8,9 C 17,5 C 3,2 km/h (1 Bft) 100 %
07.04.2014 20:50 17,0 C 17,0 C 17,5 C 58 % 1012,2 hPa 0,0 l/m 0,2 km/h (0 Bft) S-SO 149 0 min 0,000 mm 0 W/m 8,7 C 17,0 C 3,2 km/h (1 Bft) 100 %
07.04.2014 21:00 16,6 C 16,6 C 17,0 C 61 % 1012,3 hPa 0,0 l/m 0,2 km/h (0 Bft) S-SO 149 0 min 0,000 mm 0 W/m 9,0 C 16,6 C 3,2 km/h (1 Bft) 100 %
07.04.2014 21:10 16,5 C 16,4 C 16,5 C 58 % 1012,1 hPa 0,0 l/m 1,6 km/h (1 Bft) S-SO 157 0 min 0,000 mm 0 W/m 8,2 C 16,5 C 6,4 km/h (2 Bft) 100 %
07.04.2014 21:20 16,8 C 16,5 C 16,8 C 58 % 1012,1 hPa 0,0 l/m 1,6 km/h (1 Bft) SO 135 0 min 0,000 mm 0 W/m 8,5 C 16,8 C 8,0 km/h (2 Bft) 100 %
07.04.2014 21:30 17,0 C 16,8 C 17,0 C 57 % 1012,0 hPa 0,0 l/m 1,6 km/h (1 Bft) SO 135 0 min 0,000 mm 0 W/m 8,4 C 17,0 C 8,0 km/h (2 Bft) 100 %
07.04.2014 21:40 17,1 C 17,0 C 17,1 C 56 % 1012,0 hPa 0,0 l/m 1,6 km/h (1 Bft) SO 135 0 min 0,000 mm 0 W/m 8,3 C 17,1 C 8,0 km/h (2 Bft) 100 %
07.04.2014 21:50 17,1 C 17,1 C 17,1 C 57 % 1011,8 hPa 0,0 l/m 1,6 km/h (1 Bft) SO 135 0 min 0,000 mm 0 W/m 8,5 C 17,1 C 11,3 km/h (2 Bft) 99 %
07.04.2014 22:00 17,0 C 17,0 C 17,1 C 56 % 1011,9 hPa 0,0 l/m 3,2 km/h (1 Bft) S-SO 157 0 min 0,051 mm 0 W/m 8,2 C 17,0 C 9,7 km/h (2 Bft) 100 %
07.04.2014 22:10 16,7 C 16,7 C 17,1 C 58 % 1011,8 hPa 0,0 l/m 1,6 km/h (1 Bft) SO 135 0 min 0,000 mm 0 W/m 8,4 C 16,7 C 8,0 km/h (2 Bft) 100 %
07.04.2014 22:20 16,4 C 16,4 C 16,7 C 60 % 1011,9 hPa 0,0 l/m 1,6 km/h (1 Bft) S-SO 157 0 min 0,000 mm 0 W/m 8,6 C 16,4 C 8,0 km/h (2 Bft) 100 %
07.04.2014 22:30 15,9 C 15,8 C 16,4 C 61 % 1011,9 hPa 0,0 l/m 0,0 km/h (0 Bft) S-SO 157 0 min 0,000 mm 0 W/m 8,4 C 15,9 C 6,4 km/h (2 Bft) 100 %
07.04.2014 22:40 15,8 C 15,7 C 15,8 C 60 % 1011,9 hPa 0,0 l/m 0,0 km/h (0 Bft) S-SO 157 0 min 0,000 mm 0 W/m 8,1 C 15,8 C 1,6 km/h (1 Bft) 100 %
07.04.2014 22:50 16,1 C 15,8 C 16,1 C 59 % 1011,8 hPa 0,0 l/m 1,6 km/h (1 Bft) S-SO 157 0 min 0,000 mm 0 W/m 8,1 C 16,1 C 9,7 km/h (2 Bft) 100 %
07.04.2014 23:00 16,0 C 16,0 C 16,1 C 61 % 1011,8 hPa 0,0 l/m 0,0 km/h (0 Bft) S-SO 157 0 min 0,025 mm 0 W/m 8,5 C 16,0 C 6,4 km/h (2 Bft) 100 %
07.04.2014 23:10 15,5 C 15,5 C 16,0 C 63 % 1011,8 hPa 0,0 l/m 1,6 km/h (1 Bft) S-SO 157 0 min 0,000 mm 0 W/m 8,5 C 15,5 C 6,4 km/h (2 Bft) 100 %
07.04.2014 23:20 14,9 C 14,9 C 15,4 C 64 % 1011,8 hPa 0,0 l/m 0,0 km/h (0 Bft) S 180 0 min 0,000 mm 0 W/m 8,2 C 14,9 C 1,6 km/h (1 Bft) 100 %
07.04.2014 23:30 14,8 C 14,8 C 14,9 C 64 % 1011,9 hPa 0,0 l/m 1,6 km/h (1 Bft) S 180 0 min 0,000 mm 0 W/m 8,1 C 14,8 C 8,0 km/h (2 Bft) 100 %
07.04.2014 23:40 14,8 C 14,8 C 14,9 C 64 % 1011,9 hPa 0,0 l/m 1,6 km/h (1 Bft) S 180 0 min 0,000 mm 0 W/m 8,1 C 14,8 C 8,0 km/h (2 Bft) 100 %
07.04.2014 23:50 15,1 C 14,8 C 15,1 C 63 % 1011,9 hPa 0,0 l/m 1,6 km/h (1 Bft) S-SO 157 0 min 0,000 mm 0 W/m 8,1 C 15,1 C 9,7 km/h (2 Bft) 100 %
_ Min-Zeit 07:00 07:00 07:10 16:30 21:50 - 00:00 - - - - - 07:00 07:00 00:10 08:50
Minimum _ 6,8 C 6,8 C 6,8 C 46 % 1011,8 hPa - 0,0 km/h (0 Bft) - - - - - 4,8 C 6,8 C 0,0 km/h (0 Bft) 91 %
_ Max-Zeit 16:20 16:20 16:20 06:10 00:30 00:00 14:20 - - 08:50 14:00 13:10 11:30 16:20 13:50 00:00
Maximum _ 21,8 C 21,7 C 21,8 C 87 % 1019,1 hPa 0,0 l/m 8,0 km/h
SW (2 Bft)
- - 10 min 0,381 mm 798 W/m 10,8 C 21,8 C 22,5 km/h
S (4 Bft)
100 %
Durchschnitt _ 15,0 C 14,9 C 15,1 C 66 % 1016,2 hPa #0,0 l/m 1,3 km/h (1 Bft) S-SW - #9:20 h #2,895 mm 379 W/m 8,3 C 15,0 C 5,8 km/h (2 Bft) 100 %
PRIVATE WETTERSTATION BILLIGHEIM-ALLFELD - www.neckar-odenwald-wetter.de - Holger Sonntag